Time;durP1;ratioP1;P1;durP2;ratioP2;P2;SDS_P1;SDS_P2;PMS_P1;PMS_P2;Temp;Humidity;BMP_temperature;BMP_pressure;BME280_temperature;BME280_humidity;BME280_pressure;Samples;Min_cycle;Max_cycle;Signal;HPM_P1;HPM_P2
2022/11/10 00:00:02;;;;;;;8.38;2.20;;;10.30;99.90;;;;;;5002642;28;20044;-81
2022/11/10 00:02:28;;;;;;;10.27;2.25;;;10.30;99.90;;;;;;5023527;28;20652;-81
2022/11/10 00:04:54;;;;;;;12.90;2.78;;;10.30;99.90;;;;;;5040512;28;20163;-80
2022/11/10 00:07:24;;;;;;;9.98;2.67;;;10.30;99.90;;;;;;5018656;28;20037;-80
2022/11/10 00:09:51;;;;;;;9.00;2.60;;;10.30;99.90;;;;;;4997201;28;20611;-81
2022/11/10 00:12:18;;;;;;;6.63;2.20;;;10.30;99.90;;;;;;5004122;28;20037;-81
2022/11/10 00:17:28;;;;;;;6.88;2.72;;;10.30;99.90;;;;;;5036088;28;20046;-81
2022/11/10 00:19:53;;;;;;;9.35;2.15;;;10.30;99.90;;;;;;4996157;28;20065;-80
2022/11/10 00:22:19;;;;;;;8.55;2.47;;;10.20;99.90;;;;;;4996428;28;20037;-81
2022/11/10 00:24:45;;;;;;;14.13;2.72;;;10.30;99.90;;;;;;4999035;28;20038;-82
2022/11/10 00:27:13;;;;;;;12.45;2.35;;;10.30;99.90;;;;;;4997948;28;20097;-81
2022/11/10 00:29:39;;;;;;;12.75;3.03;;;10.30;99.90;;;;;;5023171;28;20050;-80
2022/11/10 00:32:06;;;;;;;11.77;2.28;;;10.40;99.90;;;;;;5011131;28;20450;-81
2022/11/10 00:34:31;;;;;;;12.13;2.95;;;10.30;99.90;;;;;;5016505;28;20045;-81
2022/11/10 00:36:57;;;;;;;9.13;2.78;;;10.30;99.90;;;;;;5026464;28;20045;-81
2022/11/10 00:39:23;;;;;;;9.50;2.78;;;10.20;99.90;;;;;;5004796;28;20077;-80
2022/11/10 00:41:49;;;;;;;9.88;2.42;;;10.20;99.90;;;;;;5031788;28;20053;-81
2022/11/10 00:44:14;;;;;;;13.18;2.80;;;10.30;99.90;;;;;;5019615;28;20037;-82
2022/11/10 00:46:40;;;;;;;9.18;2.95;;;10.30;99.90;;;;;;5016891;28;20107;-81
2022/11/10 00:49:06;;;;;;;11.57;2.83;;;10.30;99.90;;;;;;5033662;28;20060;-82
2022/11/10 00:51:31;;;;;;;11.30;2.75;;;10.20;99.90;;;;;;5013660;28;20140;-81
2022/11/10 00:53:57;;;;;;;10.63;3.03;;;10.20;99.90;;;;;;5014576;28;20038;-81
2022/11/10 00:56:23;;;;;;;7.82;2.70;;;10.30;99.90;;;;;;5001009;28;20033;-81
2022/11/10 00:58:49;;;;;;;9.38;2.47;;;10.20;99.90;;;;;;5001948;28;20153;-81
2022/11/10 01:01:16;;;;;;;9.48;2.75;;;10.10;99.90;;;;;;5002597;28;20041;-79
2022/11/10 01:03:42;;;;;;;14.65;3.20;;;10.20;99.90;;;;;;5032795;28;20099;-81
2022/11/10 01:06:10;;;;;;;10.57;2.42;;;10.20;99.90;;;;;;5018137;28;20033;-80
2022/11/10 01:08:37;;;;;;;11.68;2.80;;;10.10;99.90;;;;;;5017800;28;20068;-81
2022/11/10 01:11:09;;;;;;;10.52;3.92;;;10.20;99.90;;;;;;5017101;28;20045;-81
2022/11/10 01:13:35;;;;;;;18.10;3.97;;;10.10;99.90;;;;;;5017801;28;20037;-81
2022/11/10 01:16:13;;;;;;;12.85;3.13;;;10.10;99.90;;;;;;5036102;28;20518;-82
2022/11/10 01:18:39;;;;;;;15.40;3.17;;;10.10;99.90;;;;;;5034888;28;20052;-81
2022/11/10 01:21:05;;;;;;;9.73;2.92;;;10.10;99.90;;;;;;5020211;28;20051;-81
2022/11/10 01:23:31;;;;;;;8.35;2.60;;;10.10;99.90;;;;;;5021397;28;20061;-81
2022/11/10 01:26:03;;;;;;;11.02;3.05;;;10.10;99.90;;;;;;5005239;28;20566;-80
2022/11/10 01:28:30;;;;;;;10.55;3.90;;;10.10;99.90;;;;;;5025506;28;20076;-80
2022/11/10 01:31:00;;;;;;;11.48;3.08;;;10.10;99.90;;;;;;5010279;28;20033;-81
2022/11/10 01:33:27;;;;;;;12.20;3.08;;;10.50;99.90;;;;;;5007652;28;20122;-80
2022/11/10 01:35:53;;;;;;;14.25;3.35;;;10.10;99.90;;;;;;5020818;28;20120;-81
2022/11/10 01:38:19;;;;;;;15.63;3.75;;;10.00;99.90;;;;;;5015544;28;20501;-81
2022/11/10 01:40:45;;;;;;;8.70;3.90;;;10.30;99.90;;;;;;5001876;28;20057;-78
2022/11/10 01:43:11;;;;;;;16.27;5.28;;;10.10;99.90;;;;;;5014795;28;20036;-79
2022/11/10 01:45:40;;;;;;;13.43;3.40;;;10.00;99.90;;;;;;5015447;28;20116;-80
2022/11/10 01:48:07;;;;;;;14.50;3.90;;;10.00;99.90;;;;;;5011746;28;20044;-80
2022/11/10 01:50:38;;;;;;;19.63;3.72;;;10.00;99.90;;;;;;5029673;28;20045;-82
2022/11/10 01:53:08;;;;;;;10.65;3.33;;;10.00;99.90;;;;;;5014315;28;21140;-80
2022/11/10 01:55:36;;;;;;;13.82;4.35;;;10.00;99.90;;;;;;5009044;28;20057;-81
2022/11/10 01:58:03;;;;;;;16.20;3.80;;;10.10;99.90;;;;;;5039228;28;20029;-78
2022/11/10 02:00:28;;;;;;;15.15;4.00;;;10.00;99.90;;;;;;4990937;28;20037;-81
2022/11/10 02:03:08;;;;;;;18.50;4.20;;;10.00;99.90;;;;;;5016275;28;20095;-81
2022/11/10 02:05:35;;;;;;;16.63;3.95;;;10.00;99.90;;;;;;5032034;28;20060;-81
2022/11/10 02:08:02;;;;;;;13.68;4.55;;;10.10;99.90;;;;;;5017737;28;20583;-80
2022/11/10 02:10:28;;;;;;;14.63;4.85;;;10.00;99.90;;;;;;5029009;28;20029;-81
2022/11/10 02:12:53;;;;;;;17.92;4.45;;;9.90;99.90;;;;;;5002653;28;20051;-80
2022/11/10 02:15:19;;;;;;;14.43;5.00;;;9.90;99.90;;;;;;5019198;28;22639;-80
2022/11/10 02:17:46;;;;;;;20.38;5.95;;;9.90;99.90;;;;;;5012912;28;20121;-81
2022/11/10 02:20:16;;;;;;;16.33;5.10;;;9.90;99.90;;;;;;5050805;28;20527;-81
2022/11/10 02:22:42;;;;;;;18.92;5.10;;;9.90;99.90;;;;;;5032668;28;20466;-81
2022/11/10 02:25:08;;;;;;;15.40;4.72;;;9.90;99.90;;;;;;5017178;28;20175;-78
2022/11/10 02:27:34;;;;;;;14.95;5.28;;;9.90;99.90;;;;;;5015747;28;20037;-81
2022/11/10 02:30:01;;;;;;;15.98;5.20;;;9.90;99.90;;;;;;5032097;28;20035;-81
2022/11/10 02:32:27;;;;;;;17.10;5.28;;;9.90;99.90;;;;;;5036347;28;20509;-81
2022/11/10 02:34:53;;;;;;;20.40;5.38;;;9.90;99.90;;;;;;5030010;28;20033;-80
2022/11/10 02:37:19;;;;;;;17.42;5.53;;;9.90;99.90;;;;;;5020548;28;20044;-79
2022/11/10 02:39:45;;;;;;;16.02;5.22;;;9.80;99.90;;;;;;5032194;28;20048;-79
2022/11/10 02:42:10;;;;;;;16.00;4.90;;;9.80;99.90;;;;;;5032876;28;20047;-81
2022/11/10 02:44:37;;;;;;;18.27;4.50;;;9.80;99.90;;;;;;5019107;28;20037;-82
2022/11/10 02:47:03;;;;;;;13.48;4.32;;;9.80;99.90;;;;;;5003330;28;20044;-81
2022/11/10 02:49:28;;;;;;;25.00;5.00;;;9.80;99.90;;;;;;5018686;28;20064;-81
2022/11/10 02:51:54;;;;;;;14.15;4.97;;;9.80;99.90;;;;;;5017975;28;20037;-81
2022/11/10 02:54:20;;;;;;;14.25;4.25;;;9.80;99.90;;;;;;4997515;28;20042;-79
2022/11/10 02:56:46;;;;;;;19.05;4.68;;;9.80;99.90;;;;;;5027792;28;20056;-80
2022/11/10 02:59:12;;;;;;;14.82;4.30;;;9.80;99.90;;;;;;5014810;28;20040;-80
2022/11/10 03:01:38;;;;;;;8.57;3.38;;;9.90;99.90;;;;;;5000744;28;20041;-79
2022/11/10 03:04:04;;;;;;;18.38;4.25;;;9.90;99.90;;;;;;5017154;28;20042;-81
2022/11/10 03:06:30;;;;;;;16.30;3.80;;;9.90;99.90;;;;;;5017023;28;20124;-82
2022/11/10 03:08:57;;;;;;;17.27;3.78;;;9.90;99.90;;;;;;5015545;28;20076;-81
2022/11/10 03:11:22;;;;;;;15.93;4.03;;;10.00;99.90;;;;;;5035509;28;20132;-81
2022/11/10 03:13:48;;;;;;;23.65;4.30;;;10.00;99.90;;;;;;5018467;28;20080;-81
2022/11/10 03:16:14;;;;;;;19.58;4.90;;;10.00;99.90;;;;;;4985032;28;20040;-81
2022/11/10 03:18:39;;;;;;;16.02;4.47;;;10.20;99.90;;;;;;4998809;28;20048;-80
2022/11/10 03:21:05;;;;;;;15.45;3.63;;;10.00;99.90;;;;;;4999997;28;20152;-82
2022/11/10 03:23:32;;;;;;;11.55;4.18;;;10.00;99.90;;;;;;5015583;28;20124;-81
2022/11/10 03:25:58;;;;;;;17.83;3.72;;;10.10;99.90;;;;;;5030341;28;20049;-79
2022/11/10 03:28:23;;;;;;;18.30;4.10;;;10.10;99.90;;;;;;5046361;28;20037;-81
2022/11/10 03:30:50;;;;;;;20.50;3.97;;;10.00;99.90;;;;;;5020131;28;20192;-81
2022/11/10 03:33:15;;;;;;;20.98;4.93;;;10.00;99.90;;;;;;5020321;28;20037;-81
2022/11/10 03:35:41;;;;;;;18.77;3.95;;;10.00;99.90;;;;;;5015617;28;20052;-82
2022/11/10 03:38:07;;;;;;;14.48;4.47;;;10.00;99.90;;;;;;5034479;28;20065;-81
2022/11/10 03:40:33;;;;;;;16.73;3.83;;;10.00;99.90;;;;;;5018526;28;20044;-79
2022/11/10 03:42:58;;;;;;;21.45;4.55;;;10.00;99.90;;;;;;5015303;28;20097;-81
2022/11/10 03:45:24;;;;;;;15.57;3.88;;;10.00;99.90;;;;;;5017369;28;20045;-81
2022/11/10 03:47:50;;;;;;;20.48;5.07;;;10.00;99.90;;;;;;4984906;28;20041;-81
2022/11/10 03:50:16;;;;;;;21.23;5.18;;;10.10;99.90;;;;;;5023040;28;20048;-81
2022/11/10 03:52:44;;;;;;;15.93;4.38;;;10.10;99.90;;;;;;5032833;28;20049;-82
2022/11/10 03:55:16;;;;;;;19.15;5.68;;;10.10;99.90;;;;;;5028559;28;20045;-79
2022/11/10 03:57:42;;;;;;;22.42;4.57;;;10.10;99.90;;;;;;5031141;28;20057;-81
2022/11/10 04:00:09;;;;;;;19.35;5.05;;;10.10;99.90;;;;;;5033664;28;20083;-80
2022/11/10 04:02:36;;;;;;;19.90;5.28;;;10.20;99.90;;;;;;5035157;28;20043;-81
2022/11/10 04:10:35;;;;;;;17.13;5.18;;;10.20;99.90;;;;;;5018542;28;20444;-81
2022/11/10 04:15:44;;;;;;;;;;;10.30;99.90;;;;;;5020587;28;20094;-81
2022/11/10 04:18:23;;;;;;;16.50;4.55;;;10.30;99.90;;;;;;5016761;28;20492;-81
2022/11/10 04:20:53;;;;;;;22.80;5.22;;;10.30;99.90;;;;;;5029234;28;20049;-80
2022/11/10 04:23:27;;;;;;;23.85;5.22;;;10.20;99.90;;;;;;5035198;28;20043;-81
2022/11/10 04:28:38;;;;;;;22.13;5.30;;;10.30;99.90;;;;;;5041472;28;20015;-81
2022/11/10 04:31:05;;;;;;;22.40;6.05;;;10.30;99.90;;;;;;4999761;28;20072;-81
2022/11/10 04:33:30;;;;;;;24.38;6.00;;;10.20;99.90;;;;;;5033030;28;20395;-82
2022/11/10 04:35:56;;;;;;;20.58;4.85;;;10.20;99.90;;;;;;5023344;28;20044;-79
2022/11/10 04:38:22;;;;;;;19.30;5.15;;;10.20;99.90;;;;;;5020278;28;20056;-81
2022/11/10 04:40:48;;;;;;;17.90;4.63;;;10.20;99.90;;;;;;5023043;28;20044;-81
2022/11/10 04:43:13;;;;;;;23.02;5.47;;;10.20;99.90;;;;;;5041167;28;20040;-81
2022/11/10 04:45:39;;;;;;;22.90;5.45;;;10.20;99.90;;;;;;5023794;28;20037;-80
2022/11/10 04:48:05;;;;;;;19.95;5.22;;;10.20;99.90;;;;;;5000836;28;20040;-81
2022/11/10 04:50:31;;;;;;;26.90;5.25;;;10.20;99.90;;;;;;5018746;28;20080;-81
2022/11/10 04:52:56;;;;;;;18.27;5.07;;;10.20;99.90;;;;;;5018969;28;20095;-81
2022/11/10 04:55:22;;;;;;;20.10;5.53;;;10.20;99.90;;;;;;4985274;28;20045;-79
2022/11/10 04:57:48;;;;;;;22.50;5.35;;;10.20;99.90;;;;;;5017351;28;20064;-80
2022/11/10 05:00:14;;;;;;;21.17;5.57;;;10.10;99.90;;;;;;5017865;23;20040;-81
2022/11/10 05:02:40;;;;;;;16.88;5.13;;;10.20;99.90;;;;;;5034766;28;20532;-81
2022/11/10 05:05:06;;;;;;;19.10;5.40;;;10.10;99.90;;;;;;5048350;28;20064;-81
2022/11/10 05:07:31;;;;;;;28.33;5.15;;;10.10;99.90;;;;;;5060788;28;20056;-82
2022/11/10 05:09:57;;;;;;;25.27;4.78;;;10.20;99.90;;;;;;5042104;28;20066;-82
2022/11/10 05:12:23;;;;;;;16.70;4.05;;;10.20;99.90;;;;;;5024595;28;20048;-82
2022/11/10 05:14:48;;;;;;;25.35;6.18;;;10.20;99.90;;;;;;5045616;28;20040;-82
2022/11/10 05:17:14;;;;;;;14.57;4.03;;;10.20;99.90;;;;;;5033176;28;20071;-82
2022/11/10 05:19:49;;;;;;;23.17;5.03;;;10.20;99.90;;;;;;5019878;28;20097;-82
2022/11/10 05:22:14;;;;;;;22.98;5.40;;;10.20;99.90;;;;;;5022995;28;20068;-82
2022/11/10 05:24:40;;;;;;;22.73;6.32;;;10.10;99.90;;;;;;5054440;28;20065;-82
2022/11/10 05:27:07;;;;;;;27.73;5.68;;;10.20;99.90;;;;;;5049099;28;20032;-82
2022/11/10 05:29:33;;;;;;;23.55;4.72;;;10.20;99.90;;;;;;5025273;28;20044;-82
2022/11/10 05:31:58;;;;;;;20.00;4.50;;;10.10;99.90;;;;;;5049832;28;20039;-81
2022/11/10 05:34:24;;;;;;;20.23;4.82;;;10.10;99.90;;;;;;5015363;28;20036;-80
2022/11/10 05:36:50;;;;;;;22.88;4.75;;;10.20;99.90;;;;;;5021991;28;20040;-79
2022/11/10 05:39:15;;;;;;;24.08;5.40;;;10.30;99.90;;;;;;5020072;28;20104;-80
2022/11/10 05:41:41;;;;;;;24.23;4.55;;;10.20;99.90;;;;;;5033393;28;20086;-81
2022/11/10 05:44:07;;;;;;;17.90;4.50;;;10.20;99.90;;;;;;5004974;28;20399;-81
2022/11/10 05:46:33;;;;;;;18.70;4.50;;;10.20;99.90;;;;;;5051879;28;20037;-80
2022/11/10 05:48:58;;;;;;;22.63;4.30;;;10.20;99.90;;;;;;5071208;28;20033;-81
2022/11/10 05:51:24;;;;;;;18.60;5.32;;;10.20;99.90;;;;;;5050277;28;20048;-81
2022/11/10 05:53:50;;;;;;;16.40;4.97;;;10.20;99.90;;;;;;5038711;28;20032;-82
2022/11/10 05:56:15;;;;;;;22.45;5.22;;;10.20;99.90;;;;;;5069043;28;20090;-81
2022/11/10 05:58:41;;;;;;;25.17;5.80;;;10.20;99.90;;;;;;5072159;28;20048;-81
2022/11/10 06:01:07;;;;;;;28.42;5.13;;;10.30;99.90;;;;;;5063476;28;20040;-80
2022/11/10 06:03:32;;;;;;;21.73;5.13;;;10.30;99.90;;;;;;5036021;28;20036;-80
2022/11/10 06:05:58;;;;;;;26.83;5.25;;;10.30;99.90;;;;;;5035674;28;20055;-81
2022/11/10 06:08:24;;;;;;;15.43;4.43;;;10.20;99.90;;;;;;5035476;28;20124;-81
2022/11/10 06:10:49;;;;;;;24.02;4.32;;;10.30;99.90;;;;;;5052993;28;20689;-81
2022/11/10 06:13:15;;;;;;;25.10;5.95;;;10.50;99.90;;;;;;5043914;28;20128;-82
2022/11/10 06:15:41;;;;;;;23.08;4.32;;;10.30;99.90;;;;;;5053348;28;20051;-81
2022/11/10 06:18:06;;;;;;;25.40;4.75;;;10.40;99.90;;;;;;5033715;28;20040;-79
2022/11/10 06:20:32;;;;;;;23.88;4.32;;;10.50;99.90;;;;;;5040392;28;20489;-78
2022/11/10 06:23:01;;;;;;;22.63;4.30;;;10.40;99.90;;;;;;5024033;28;20071;-79
2022/11/10 06:25:28;;;;;;;19.33;4.18;;;10.40;99.90;;;;;;5051169;28;20041;-81
2022/11/10 06:27:54;;;;;;;23.13;4.45;;;10.40;99.90;;;;;;5048681;28;20090;-79
2022/11/10 06:30:21;;;;;;;19.20;3.97;;;10.40;99.90;;;;;;5044104;28;20039;-81
2022/11/10 06:32:50;;;;;;;25.38;4.80;;;10.40;99.90;;;;;;5051040;28;20132;-80
2022/11/10 06:35:15;;;;;;;21.58;4.43;;;10.40;99.90;;;;;;5068522;28;20041;-80
2022/11/10 06:37:41;;;;;;;24.25;4.40;;;10.40;99.90;;;;;;5026670;28;20090;-81
2022/11/10 06:40:09;;;;;;;18.38;4.45;;;10.40;99.90;;;;;;5046412;28;20536;-81
2022/11/10 06:42:36;;;;;;;23.83;4.30;;;10.40;99.90;;;;;;5042643;28;20044;-81
2022/11/10 06:45:02;;;;;;;20.30;4.13;;;10.30;99.90;;;;;;5045930;28;20036;-81
2022/11/10 06:47:28;;;;;;;23.60;3.90;;;10.30;99.90;;;;;;5031185;28;20512;-80
2022/11/10 06:49:54;;;;;;;23.30;4.05;;;10.40;99.90;;;;;;5028619;28;20963;-81
2022/11/10 06:52:20;;;;;;;26.42;4.32;;;10.40;99.90;;;;;;5031397;28;20062;-80
2022/11/10 06:54:45;;;;;;;18.08;3.65;;;10.40;99.90;;;;;;5037885;28;20167;-77
2022/11/10 06:57:11;;;;;;;19.60;3.83;;;10.40;99.90;;;;;;5033497;28;20048;-81
2022/11/10 06:59:37;;;;;;;22.40;3.60;;;10.40;99.90;;;;;;5036340;28;20087;-81
2022/11/10 07:02:08;;;;;;;20.10;4.07;;;10.50;99.90;;;;;;5032563;28;20064;-81
2022/11/10 07:04:34;;;;;;;18.17;3.67;;;10.50;99.90;;;;;;5057334;28;20041;-81
2022/11/10 07:07:00;;;;;;;22.85;4.30;;;10.50;99.90;;;;;;5035468;28;20076;-83
2022/11/10 07:09:26;;;;;;;26.60;4.45;;;10.50;99.90;;;;;;5018598;28;20040;-81
2022/11/10 07:11:52;;;;;;;23.98;4.30;;;10.50;99.90;;;;;;5039768;28;20132;-82
2022/11/10 07:14:18;;;;;;;17.13;4.00;;;10.50;99.90;;;;;;5050504;28;20040;-82
2022/11/10 07:16:43;;;;;;;21.70;4.45;;;10.60;99.90;;;;;;5052247;28;20037;-82
2022/11/10 07:19:09;;;;;;;29.48;4.63;;;10.60;99.90;;;;;;5030976;28;20102;-81
2022/11/10 07:21:35;;;;;;;20.08;3.97;;;10.60;99.90;;;;;;5019331;28;20044;-81
2022/11/10 07:24:00;;;;;;;18.23;3.60;;;10.60;99.90;;;;;;5035058;28;20498;-82
2022/11/10 07:26:26;;;;;;;20.25;3.90;;;10.50;99.90;;;;;;5025043;28;20055;-82
2022/11/10 07:28:52;;;;;;;19.98;4.25;;;10.60;99.90;;;;;;5042567;28;20064;-79
2022/11/10 07:31:17;;;;;;;23.10;3.72;;;10.60;99.90;;;;;;5055979;28;20041;-80
2022/11/10 07:33:49;;;;;;;19.45;3.72;;;10.60;99.90;;;;;;5070435;28;20140;-81
2022/11/10 07:36:15;;;;;;;18.08;3.70;;;10.60;99.90;;;;;;5073274;28;20589;-82
2022/11/10 07:38:41;;;;;;;23.73;3.78;;;10.60;99.90;;;;;;5058623;28;20089;-80
2022/11/10 07:41:07;;;;;;;22.15;3.70;;;10.60;99.90;;;;;;5057885;28;20047;-82
2022/11/10 07:43:32;;;;;;;19.67;3.50;;;10.50;99.90;;;;;;5057033;28;20103;-81
2022/11/10 07:45:59;;;;;;;22.00;4.25;;;10.60;99.90;;;;;;5010630;28;20111;-81
2022/11/10 07:48:25;;;;;;;31.33;6.20;;;10.70;99.90;;;;;;5037331;28;20052;-81
2022/11/10 07:50:51;;;;;;;20.48;4.28;;;10.70;99.90;;;;;;5049817;28;20040;-81
2022/11/10 07:53:19;;;;;;;24.45;3.63;;;10.70;99.90;;;;;;5020898;28;20055;-81
2022/11/10 07:55:45;;;;;;;22.38;4.13;;;10.70;99.90;;;;;;5037577;28;20048;-82
2022/11/10 07:58:12;;;;;;;18.92;3.97;;;10.80;99.90;;;;;;5071516;28;20036;-81
2022/11/10 08:00:39;;;;;;;19.63;3.35;;;10.90;99.90;;;;;;5021718;28;20052;-82
2022/11/10 08:03:25;;;;;;;24.05;4.47;;;11.00;99.90;;;;;;5055881;28;20040;-81
2022/11/10 08:05:51;;;;;;;16.67;3.92;;;11.10;99.90;;;;;;5067144;28;20121;-82
2022/11/10 08:08:17;;;;;;;31.83;4.95;;;11.10;99.90;;;;;;5040946;28;20052;-82
2022/11/10 08:10:43;;;;;;;16.00;3.58;;;11.20;99.90;;;;;;5054664;28;20054;-80
2022/11/10 08:13:10;;;;;;;23.80;3.90;;;11.30;99.90;;;;;;5034613;28;20036;-82
2022/11/10 08:15:37;;;;;;;26.90;4.25;;;11.40;99.90;;;;;;5070602;28;20032;-82
2022/11/10 08:18:22;;;;;;;21.15;4.68;;;11.40;99.90;;;;;;5032875;28;20063;-81
2022/11/10 08:20:48;;;;;;;26.05;4.57;;;11.40;99.90;;;;;;5030299;28;20063;-80
2022/11/10 08:23:15;;;;;;;27.75;3.97;;;11.50;99.90;;;;;;5030006;28;20045;-79
2022/11/10 08:25:41;;;;;;;19.83;4.20;;;11.50;99.90;;;;;;5036607;28;20049;-79
2022/11/10 08:28:17;;;;;;;23.67;4.32;;;11.50;99.90;;;;;;5037449;28;20107;-79
2022/11/10 08:30:44;;;;;;;20.40;5.22;;;11.50;99.90;;;;;;5055085;28;20032;-80
2022/11/10 08:33:13;;;;;;;25.88;4.57;;;11.60;99.90;;;;;;5052269;28;20067;-80
2022/11/10 08:35:42;;;;;;;24.05;4.32;;;11.60;99.90;;;;;;5049449;28;20123;-81
2022/11/10 08:38:16;;;;;;;25.20;4.07;;;11.60;99.90;;;;;;5040231;28;20040;-81
2022/11/10 08:40:43;;;;;;;24.42;4.57;;;11.60;99.90;;;;;;5059686;28;20044;-82
2022/11/10 08:43:10;;;;;;;29.05;4.93;;;11.60;99.90;;;;;;5027575;28;20696;-82
2022/11/10 08:45:38;;;;;;;24.60;4.63;;;11.60;99.90;;;;;;5054492;28;20040;-83
2022/11/10 08:48:25;;;;;;;21.00;3.88;;;11.70;99.90;;;;;;5033279;28;20447;-82
2022/11/10 08:50:51;;;;;;;23.08;5.00;;;11.70;99.90;;;;;;5053741;28;20044;-81
2022/11/10 08:53:20;;;;;;;19.23;4.32;;;11.70;99.90;;;;;;5024877;28;20033;-82
2022/11/10 08:55:46;;;;;;;24.55;4.25;;;11.80;99.90;;;;;;5037153;28;20117;-78
2022/11/10 08:58:18;;;;;;;20.92;4.65;;;11.90;99.90;;;;;;5041338;28;20122;-81
2022/11/10 09:00:44;;;;;;;21.85;4.43;;;11.90;99.90;;;;;;5054507;28;20037;-80
2022/11/10 09:03:15;;;;;;;16.73;4.13;;;12.00;99.90;;;;;;5055189;28;20035;-81
2022/11/10 09:05:41;;;;;;;28.17;4.72;;;12.10;99.90;;;;;;5056722;28;20123;-81
2022/11/10 09:08:07;;;;;;;25.67;5.40;;;12.10;99.90;;;;;;5056236;28;20098;-82
2022/11/10 09:10:38;;;;;;;23.00;5.20;;;12.20;99.90;;;;;;5032602;28;20037;-81
2022/11/10 09:13:04;;;;;;;21.80;5.47;;;12.20;99.90;;;;;;5050957;28;20040;-82
2022/11/10 09:15:32;;;;;;;24.35;5.35;;;12.20;99.90;;;;;;5073518;28;20108;-82
2022/11/10 09:17:59;;;;;;;24.30;6.15;;;12.30;99.90;;;;;;5032065;28;20052;-82
2022/11/10 09:20:26;;;;;;;23.48;5.85;;;12.30;99.90;;;;;;5056878;28;20409;-82
2022/11/10 09:22:52;;;;;;;22.92;5.05;;;12.20;99.90;;;;;;5052469;28;20032;-82
2022/11/10 09:25:17;;;;;;;23.33;5.25;;;12.30;99.90;;;;;;5062829;28;20032;-81
2022/11/10 09:27:43;;;;;;;21.95;6.10;;;12.20;99.90;;;;;;5018207;28;20619;-80
2022/11/10 09:30:10;;;;;;;19.10;5.32;;;12.30;99.90;;;;;;5035319;28;20100;-81
2022/11/10 09:32:35;;;;;;;18.30;5.47;;;12.20;99.90;;;;;;5026347;28;20078;-82
2022/11/10 09:35:01;;;;;;;21.63;5.07;;;12.20;99.90;;;;;;5055800;28;20045;-78
2022/11/10 09:37:27;;;;;;;24.63;6.03;;;12.20;99.90;;;;;;5076733;28;20469;-81
2022/11/10 09:39:53;;;;;;;29.48;5.55;;;12.30;99.90;;;;;;5030339;28;20047;-81
2022/11/10 09:42:40;;;;;;;32.45;7.00;;;12.30;99.90;;;;;;5032399;28;20100;-79
2022/11/10 09:45:36;;;;;;;23.85;6.32;;;12.40;99.90;;;;;;5047669;28;20037;-81
2022/11/10 09:48:29;;;;;;;20.80;5.70;;;12.40;99.90;;;;;;5054309;28;20037;-80
2022/11/10 09:51:25;;;;;;;26.90;6.38;;;12.40;99.90;;;;;;5032609;28;20049;-80
2022/11/10 09:53:56;;;;;;;20.75;5.63;;;12.40;99.90;;;;;;5049382;28;20044;-80
2022/11/10 09:56:32;;;;;;;19.52;6.03;;;12.50;99.90;;;;;;5062248;28;20074;-80
2022/11/10 09:59:17;;;;;;;19.88;5.00;;;12.40;99.90;;;;;;5048898;28;20086;-81
2022/11/10 10:02:10;;;;;;;22.52;5.57;;;12.70;99.90;;;;;;5052588;28;20127;-80
2022/11/10 10:04:36;;;;;;;26.38;5.80;;;12.60;99.90;;;;;;5053519;28;20235;-81
2022/11/10 10:07:25;;;;;;;19.45;4.57;;;12.70;99.90;;;;;;5050988;28;20094;-81
2022/11/10 10:10:30;;;;;;;24.88;5.18;;;12.80;99.90;;;;;;5056106;28;20048;-81
2022/11/10 10:13:02;;;;;;;23.20;5.43;;;13.00;99.90;;;;;;5043064;28;20131;-83
2022/11/10 10:15:39;;;;;;;16.85;4.15;;;13.10;99.90;;;;;;5045932;28;20063;-82
2022/11/10 10:18:28;;;;;;;20.15;4.60;;;13.20;99.90;;;;;;5048214;28;20060;-82
2022/11/10 10:21:27;;;;;;;26.08;5.55;;;13.20;99.90;;;;;;5041272;28;20083;-82
2022/11/10 10:23:54;;;;;;;23.27;4.88;;;13.20;99.90;;;;;;5087794;28;20041;-83
2022/11/10 10:26:24;;;;;;;19.27;4.93;;;13.20;99.90;;;;;;5072144;28;20029;-83
2022/11/10 10:28:50;;;;;;;26.50;6.13;;;13.20;99.90;;;;;;5068658;28;20036;-82
2022/11/10 10:31:20;;;;;;;20.52;4.90;;;13.20;99.90;;;;;;5051167;28;20052;-81
2022/11/10 10:33:47;;;;;;;21.13;4.85;;;13.10;99.90;;;;;;5035425;28;20044;-83
2022/11/10 10:36:21;;;;;;;16.95;5.75;;;13.10;99.90;;;;;;5051319;28;20094;-80
2022/11/10 10:38:50;;;;;;;18.83;5.38;;;13.10;99.90;;;;;;5049582;28;20052;-82
2022/11/10 10:41:25;;;;;;;21.33;5.38;;;13.20;99.90;;;;;;5050067;28;20097;-80
2022/11/10 10:43:53;;;;;;;23.70;5.57;;;13.10;99.90;;;;;;5037510;28;20036;-81
2022/11/10 10:46:25;;;;;;;18.17;5.90;;;13.10;99.90;;;;;;5054830;28;20052;-79
2022/11/10 10:49:13;;;;;;;22.85;5.53;;;13.00;99.90;;;;;;5033431;28;20044;-81
2022/11/10 10:51:39;;;;;;;23.75;7.40;;;13.00;99.90;;;;;;5035075;28;20110;-81
2022/11/10 10:54:22;;;;;;;19.98;6.05;;;13.00;99.90;;;;;;5072501;28;20064;-83
2022/11/10 10:56:48;;;;;;;19.42;5.10;;;13.00;99.90;;;;;;5029561;28;20044;-81
2022/11/10 11:01:45;;;;;;;19.88;6.15;;;13.10;99.90;;;;;;5067703;28;20052;-80
2022/11/10 11:04:31;;;;;;;23.10;7.38;;;13.10;99.90;;;;;;5038646;28;20102;-76
2022/11/10 11:07:00;;;;;;;16.90;5.45;;;13.10;99.90;;;;;;5026741;28;20040;-78
2022/11/10 11:09:47;;;;;;;19.35;6.30;;;13.00;99.90;;;;;;5036371;28;21219;-77
2022/11/10 11:12:30;;;;;;;19.75;5.22;;;13.00;99.90;;;;;;5024011;28;20059;-77
2022/11/10 11:15:25;;;;;;;25.80;5.35;;;13.00;99.90;;;;;;5016494;28;20045;-77
2022/11/10 11:17:56;;;;;;;18.00;5.28;;;13.00;99.90;;;;;;5046176;28;20040;-79
2022/11/10 11:20:36;;;;;;;23.17;4.70;;;13.00;99.90;;;;;;5044961;28;20120;-81
2022/11/10 11:23:42;;;;;;;22.55;5.32;;;13.00;99.90;;;;;;5048099;28;20041;-77
2022/11/10 11:26:18;;;;;;;19.83;5.53;;;13.00;99.90;;;;;;5011671;28;20094;-78
2022/11/10 11:29:01;;;;;;;22.67;5.65;;;12.90;99.90;;;;;;5042044;28;20029;-81
2022/11/10 11:31:44;;;;;;;16.80;5.30;;;13.00;99.90;;;;;;5034789;28;20051;-80
2022/11/10 11:34:39;;;;;;;15.02;5.00;;;12.90;99.90;;;;;;5035837;28;20052;-81
2022/11/10 11:37:31;;;;;;;21.98;5.47;;;13.00;99.90;;;;;;5030688;28;20040;-81
2022/11/10 11:40:11;;;;;;;24.35;5.07;;;12.90;99.90;;;;;;5050596;28;20119;-80
2022/11/10 11:43:17;;;;;;;21.27;5.65;;;12.90;99.90;;;;;;5030323;28;20047;-80
2022/11/10 11:46:04;;;;;;;19.92;5.00;;;12.90;99.90;;;;;;5068518;28;20072;-80
2022/11/10 11:48:39;;;;;;;21.77;4.90;;;12.90;99.90;;;;;;5050929;28;20274;-82
2022/11/10 11:51:07;;;;;;;23.88;5.72;;;12.90;99.90;;;;;;5035046;28;20036;-79
2022/11/10 11:54:08;;;;;;;27.02;5.45;;;12.90;99.90;;;;;;5031512;28;20051;-79
2022/11/10 11:56:40;;;;;;;19.83;4.95;;;12.90;99.90;;;;;;5039899;28;20125;-78
2022/11/10 11:59:34;;;;;;;21.75;4.68;;;12.90;99.90;;;;;;5054339;28;20540;-79
2022/11/10 12:02:25;;;;;;;17.60;4.70;;;12.80;99.90;;;;;;5033954;28;20127;-79
2022/11/10 12:05:10;;;;;;;26.92;4.70;;;12.90;99.90;;;;;;5032266;28;20052;-79
2022/11/10 12:08:11;;;;;;;18.58;4.07;;;12.90;99.90;;;;;;5034785;28;20043;-80
2022/11/10 12:10:49;;;;;;;17.77;4.78;;;12.80;99.90;;;;;;5013992;28;20054;-81
2022/11/10 12:13:44;;;;;;;23.45;4.97;;;12.80;99.90;;;;;;5048096;28;20106;-79
2022/11/10 12:16:30;;;;;;;20.48;4.68;;;12.80;99.90;;;;;;5025521;28;20040;-80
2022/11/10 12:19:05;;;;;;;17.95;4.28;;;12.80;99.90;;;;;;5044853;28;20045;-79
2022/11/10 12:21:55;;;;;;;18.70;4.28;;;12.80;99.90;;;;;;5030421;28;20504;-80
2022/11/10 12:24:45;;;;;;;25.27;4.65;;;12.90;99.90;;;;;;5032806;28;20048;-79
2022/11/10 12:27:17;;;;;;;21.48;4.28;;;12.90;99.90;;;;;;5050865;28;20047;-80
2022/11/10 12:30:07;;;;;;;13.25;4.35;;;13.00;99.90;;;;;;5035596;28;20044;-80
2022/11/10 12:33:12;;;;;;;20.23;5.15;;;12.90;99.90;;;;;;5049101;28;20040;-81
2022/11/10 12:35:42;;;;;;;18.15;4.78;;;12.90;99.90;;;;;;5036813;28;20159;-79
2022/11/10 12:38:13;;;;;;;25.92;4.50;;;12.90;99.90;;;;;;5053371;28;20032;-79
2022/11/10 12:40:47;;;;;;;21.13;4.65;;;13.00;99.90;;;;;;5051720;28;20076;-80
2022/11/10 12:43:31;;;;;;;19.85;4.15;;;12.90;99.90;;;;;;5051414;28;20041;-81
2022/11/10 12:46:02;;;;;;;20.00;4.50;;;13.00;99.90;;;;;;5032690;28;20036;-81
2022/11/10 12:48:39;;;;;;;16.70;5.47;;;12.90;99.90;;;;;;5048895;28;20029;-79
2022/11/10 12:51:18;;;;;;;19.70;4.30;;;13.00;99.90;;;;;;5067634;28;20639;-81
2022/11/10 12:53:47;;;;;;;16.30;3.92;;;13.00;99.90;;;;;;5039578;28;20455;-79
2022/11/10 12:56:35;;;;;;;25.10;5.25;;;13.00;99.90;;;;;;5025153;28;20047;-80
2022/11/10 12:59:23;;;;;;;24.25;4.55;;;13.00;99.90;;;;;;5051494;28;20055;-80
2022/11/10 13:01:57;;;;;;;23.23;4.45;;;13.00;99.90;;;;;;5032573;28;20406;-78
2022/11/10 13:04:22;;;;;;;;;;;13.00;99.90;;;;;;5034340;28;20037;-79
2022/11/10 13:07:09;;;;;;;29.17;5.25;;;13.00;99.90;;;;;;5032068;28;19991;-81
2022/11/10 13:09:38;;;;;;;22.40;4.85;;;13.00;99.90;;;;;;5035083;28;20033;-80